createdAt,value
2018-04-27T00:02:36.342Z,6.00
2018-04-27T00:05:40.266Z,5.80
2018-04-27T00:08:43.500Z,5.80
2018-04-27T00:11:46.654Z,5.80
2018-04-27T00:14:49.854Z,6.00
2018-04-27T00:17:53.011Z,5.70
2018-04-27T00:20:56.219Z,5.50
2018-04-27T00:23:59.360Z,5.80
2018-04-27T00:27:02.549Z,5.80
2018-04-27T00:30:06.295Z,5.80
2018-04-27T00:33:09.507Z,5.60
2018-04-27T00:36:13.439Z,5.60
2018-04-27T00:39:16.649Z,5.60
2018-04-27T00:42:19.836Z,5.80
2018-04-27T00:45:23.875Z,5.70
2018-04-27T00:48:27.042Z,5.70
2018-04-27T00:51:30.202Z,5.60
2018-04-27T00:54:34.139Z,5.40
2018-04-27T00:57:38.066Z,5.30
2018-04-27T01:00:42.300Z,5.20
2018-04-27T01:03:45.495Z,5.20
2018-04-27T01:06:48.686Z,5.30
2018-04-27T01:09:51.854Z,5.40
2018-04-27T01:12:55.039Z,5.40
2018-04-27T01:15:58.240Z,5.30
2018-04-27T01:19:01.409Z,5.20
2018-04-27T01:22:04.585Z,5.20
2018-04-27T01:25:08.125Z,5.20
2018-04-27T01:28:12.053Z,5.20
2018-04-27T01:31:15.716Z,5.20
2018-04-27T01:34:18.924Z,5.20
2018-04-27T01:37:22.872Z,5.00
2018-04-27T01:40:26.316Z,4.90
2018-04-27T01:43:29.480Z,4.80
2018-04-27T01:46:32.639Z,4.60
2018-04-27T01:49:35.814Z,4.70
2018-04-27T01:52:39.785Z,4.60
2018-04-27T01:55:43.008Z,4.60
2018-04-27T01:58:46.179Z,4.70
2018-04-27T02:01:49.360Z,4.50
2018-04-27T02:04:52.564Z,4.50
2018-04-27T02:07:55.701Z,4.50
2018-04-27T02:10:59.657Z,4.40
2018-04-27T02:14:02.792Z,4.40
2018-04-27T02:17:06.101Z,4.50
2018-04-27T02:20:09.309Z,4.50
2018-04-27T02:23:12.515Z,4.50
2018-04-27T02:26:15.748Z,4.50
2018-04-27T02:29:18.899Z,4.60
2018-04-27T02:32:22.098Z,4.60
2018-04-27T02:35:26.011Z,4.80
2018-04-27T02:38:29.227Z,4.60
2018-04-27T02:41:32.394Z,4.40
2018-04-27T02:44:35.579Z,4.10
2018-04-27T02:47:38.751Z,4.30
2018-04-27T02:50:42.145Z,4.10
2018-04-27T02:53:45.296Z,4.20
2018-04-27T02:56:48.477Z,4.10
2018-04-27T02:59:51.631Z,4.30
2018-04-27T03:02:55.585Z,4.10
2018-04-27T03:05:58.768Z,4.10
2018-04-27T03:09:03.459Z,4.10
2018-04-27T03:12:06.699Z,4.30
2018-04-27T03:15:09.770Z,4.40
2018-04-27T03:18:18.638Z,4.50
2018-04-27T03:21:21.775Z,4.20
2018-04-27T03:24:24.931Z,4.30
2018-04-27T03:27:28.113Z,4.10
2018-04-27T03:30:31.662Z,4.00
2018-04-27T03:33:35.761Z,4.00
2018-04-27T03:36:39.880Z,4.00
2018-04-27T03:39:43.916Z,3.70
2018-04-27T03:42:48.127Z,3.70
2018-04-27T03:45:52.073Z,3.70
2018-04-27T03:48:56.225Z,3.70
2018-04-27T03:51:59.386Z,3.60
2018-04-27T03:55:02.517Z,3.60
2018-04-27T03:58:05.701Z,3.70
2018-04-27T04:01:20.896Z,3.70
2018-04-27T04:04:36.005Z,4.00
2018-04-27T04:07:39.170Z,3.70
2018-04-27T04:10:42.959Z,3.60
2018-04-27T04:13:46.117Z,3.60
2018-04-27T04:16:50.238Z,3.90
2018-04-27T04:19:53.393Z,4.10
2018-04-27T04:22:56.560Z,4.00
2018-04-27T04:25:59.711Z,3.90
2018-04-27T04:29:02.881Z,3.70
2018-04-27T04:32:06.035Z,3.60
2018-04-27T04:35:09.219Z,3.70
2018-04-27T04:38:12.406Z,3.60
2018-04-27T04:41:16.304Z,3.60
2018-04-27T04:44:19.493Z,4.10
2018-04-27T04:47:22.659Z,4.10
2018-04-27T04:50:26.599Z,4.50
2018-04-27T04:56:40.994Z,4.80
2018-04-27T04:59:44.144Z,4.70
2018-04-27T05:02:48.103Z,4.80
2018-04-27T05:05:51.268Z,4.80
2018-04-27T05:08:54.450Z,4.80
2018-04-27T05:11:57.650Z,4.60
2018-04-27T05:15:01.567Z,5.00
2018-04-27T05:18:23.065Z,5.00
2018-04-27T05:21:27.000Z,5.10
2018-04-27T05:24:30.196Z,5.10
2018-04-27T05:27:33.368Z,5.20
2018-04-27T05:30:37.304Z,5.60
2018-04-27T05:33:40.596Z,5.50
2018-04-27T05:36:43.802Z,6.10
2018-04-27T05:39:47.019Z,6.50
2018-04-27T05:42:50.171Z,6.60
2018-04-27T05:45:54.127Z,7.00
2018-04-27T05:48:58.184Z,7.10
2018-04-27T05:52:01.321Z,6.90
2018-04-27T05:55:05.164Z,6.70
2018-04-27T05:58:09.840Z,6.90
2018-04-27T06:01:12.999Z,6.90
2018-04-27T06:04:17.001Z,6.80
2018-04-27T06:07:21.019Z,6.80
2018-04-27T06:10:24.176Z,7.40
2018-04-27T06:13:27.365Z,7.60
2018-04-27T06:16:30.546Z,7.60
2018-04-27T06:19:33.730Z,7.90
2018-04-27T06:22:37.472Z,7.90
2018-04-27T06:25:40.784Z,8.20
2018-04-27T06:28:51.734Z,8.10
2018-04-27T06:31:56.320Z,8.20
2018-04-27T06:35:00.803Z,9.60
2018-04-27T06:38:06.147Z,9.60
2018-04-27T06:41:09.436Z,11.50
2018-04-27T06:44:12.737Z,13.00
2018-04-27T06:47:16.827Z,14.50
2018-04-27T06:50:20.095Z,14.50
2018-04-27T06:53:23.442Z,14.30
2018-04-27T06:56:26.774Z,13.40
2018-04-27T06:59:30.115Z,12.90
2018-04-27T07:02:33.357Z,12.20
2018-04-27T07:05:37.361Z,12.20
2018-04-27T07:08:41.198Z,12.20
2018-04-27T07:11:44.477Z,12.30
2018-04-27T07:14:47.717Z,12.90
2018-04-27T07:17:51.014Z,14.40
2018-04-27T07:20:54.275Z,16.10
2018-04-27T07:23:57.583Z,17.70
2018-04-27T07:27:00.822Z,18.50
2018-04-27T07:30:04.166Z,19.80
2018-04-27T07:33:08.228Z,20.20
2018-04-27T07:36:11.501Z,20.20
2018-04-27T07:39:15.568Z,18.90
2018-04-27T07:42:18.837Z,18.40
2018-04-27T07:45:22.319Z,19.40
2018-04-27T07:48:25.496Z,20.00
2018-04-27T07:51:28.801Z,18.70
2018-04-27T07:54:32.067Z,18.50
2018-04-27T07:57:35.280Z,18.40
2018-04-27T08:00:38.568Z,20.40
2018-04-27T08:03:42.614Z,20.60
2018-04-27T08:06:45.862Z,20.60
2018-04-27T08:09:50.777Z,20.70
2018-04-27T08:12:54.018Z,20.70
2018-04-27T08:15:57.310Z,21.90
2018-04-27T08:19:00.617Z,20.70
2018-04-27T08:22:03.907Z,20.60
2018-04-27T08:25:07.190Z,20.10
2018-04-27T08:28:11.145Z,20.80
2018-04-27T08:31:14.465Z,20.70
2018-04-27T08:34:18.579Z,20.20
2018-04-27T08:37:21.838Z,20.20
2018-04-27T08:40:26.002Z,20.90
2018-04-27T08:43:29.264Z,21.40
2018-04-27T08:46:32.483Z,20.10
2018-04-27T08:49:36.487Z,19.60
2018-04-27T08:52:39.891Z,19.60
2018-04-27T08:55:43.210Z,19.80
2018-04-27T08:58:46.449Z,20.20
2018-04-27T09:01:49.708Z,20.50
2018-04-27T09:04:53.735Z,21.20
2018-04-27T09:07:56.955Z,21.20
2018-04-27T09:11:00.524Z,20.10
2018-04-27T09:14:04.548Z,19.90
2018-04-27T09:17:08.593Z,20.70
2018-04-27T09:20:11.856Z,20.70
2018-04-27T09:23:15.095Z,21.10
2018-04-27T09:26:18.380Z,20.80
2018-04-27T09:29:21.638Z,20.60
2018-04-27T09:32:24.939Z,20.60
2018-04-27T09:38:37.755Z,21.00
2018-04-27T09:41:41.226Z,21.00
2018-04-27T09:44:44.449Z,21.00
2018-04-27T09:47:47.685Z,21.40
2018-04-27T09:50:51.066Z,21.60
2018-04-27T09:53:55.014Z,20.10
2018-04-27T09:56:58.228Z,20.10
2018-04-27T10:00:01.463Z,19.70
2018-04-27T10:03:05.505Z,19.80
2018-04-27T10:06:09.472Z,19.90
2018-04-27T10:09:12.725Z,20.80
2018-04-27T10:12:15.968Z,21.80
2018-04-27T10:15:19.235Z,21.60
2018-04-27T10:18:22.465Z,21.20
2018-04-27T10:21:25.696Z,20.60
2018-04-27T10:24:28.953Z,20.00
2018-04-27T10:27:32.245Z,19.80
2018-04-27T10:30:35.474Z,19.80
2018-04-27T10:33:38.776Z,19.30
2018-04-27T10:36:42.824Z,19.40
2018-04-27T10:39:46.027Z,19.60
2018-04-27T10:42:49.247Z,19.40
2018-04-27T10:45:52.535Z,19.10
2018-04-27T10:48:55.945Z,19.70
2018-04-27T10:51:59.153Z,19.20
2018-04-27T10:55:02.369Z,19.70
2018-04-27T10:58:06.393Z,20.20
2018-04-27T11:01:10.012Z,20.20
2018-04-27T11:04:13.192Z,20.30
2018-04-27T11:07:16.416Z,19.60
2018-04-27T11:10:22.653Z,19.00
2018-04-27T11:13:25.926Z,18.60
2018-04-27T11:16:29.117Z,18.30
2018-04-27T11:19:32.378Z,18.10
2018-04-27T11:22:35.626Z,18.00
2018-04-27T11:25:38.870Z,18.60
2018-04-27T11:28:42.331Z,18.30
2018-04-27T11:31:45.568Z,18.00
2018-04-27T11:34:48.803Z,17.50
2018-04-27T11:37:52.516Z,17.40
2018-04-27T11:40:55.736Z,17.60
2018-04-27T11:43:58.968Z,18.40
2018-04-27T11:47:02.232Z,18.30
2018-04-27T11:50:05.415Z,18.60
2018-04-27T11:53:08.641Z,18.60
2018-04-27T11:56:11.919Z,18.70
2018-04-27T11:59:15.167Z,18.70
2018-04-27T12:02:18.443Z,18.80
2018-04-27T12:05:28.970Z,17.80
2018-04-27T12:08:32.211Z,17.80
2018-04-27T12:11:35.454Z,17.50
2018-04-27T12:14:38.706Z,17.30
2018-04-27T12:17:41.995Z,17.10
2018-04-27T12:20:46.096Z,16.90
2018-04-27T12:23:49.362Z,16.90
2018-04-27T12:26:52.594Z,16.90
2018-04-27T12:29:55.855Z,16.60
2018-04-27T12:32:59.074Z,16.70
2018-04-27T12:36:03.149Z,17.00
2018-04-27T12:39:06.462Z,17.30
2018-04-27T12:42:09.702Z,17.30
2018-04-27T12:45:12.945Z,17.40
2018-04-27T12:48:16.201Z,17.40
2018-04-27T12:51:20.191Z,17.20
2018-04-27T12:54:23.395Z,17.20
2018-04-27T12:57:26.658Z,17.20
2018-04-27T13:00:29.877Z,17.20
2018-04-27T13:03:33.063Z,17.30
2018-04-27T13:06:36.281Z,17.40
2018-04-27T13:09:39.462Z,17.60
2018-04-27T13:12:42.651Z,17.40
2018-04-27T13:15:45.814Z,17.30
2018-04-27T13:18:48.976Z,17.30
2018-04-27T13:21:52.152Z,17.40
2018-04-27T13:24:55.323Z,17.40
2018-04-27T13:27:58.619Z,17.50
2018-04-27T13:31:01.801Z,17.80
2018-04-27T13:34:04.980Z,17.80
2018-04-27T13:37:08.138Z,17.80
2018-04-27T13:40:11.499Z,17.60
2018-04-27T13:43:14.656Z,17.40
2018-04-27T13:46:17.840Z,17.40
2018-04-27T13:49:21.011Z,17.50
2018-04-27T13:52:24.185Z,17.50
2018-04-27T13:55:27.463Z,17.40
2018-04-27T13:58:30.624Z,17.30
2018-04-27T14:01:34.549Z,17.10
2018-04-27T14:04:37.723Z,17.00
2018-04-27T14:07:41.086Z,17.20
2018-04-27T14:10:44.268Z,16.90
2018-04-27T14:13:47.452Z,17.00
2018-04-27T14:16:50.674Z,17.00
2018-04-27T14:19:53.902Z,17.10
2018-04-27T14:22:57.082Z,17.10
2018-04-27T14:26:01.047Z,17.10
2018-04-27T14:29:04.593Z,17.10
2018-04-27T14:32:07.774Z,17.20
2018-04-27T14:35:10.941Z,17.50
2018-04-27T14:38:14.091Z,17.60
2018-04-27T14:41:18.000Z,17.70
2018-04-27T14:44:21.466Z,17.70
2018-04-27T14:47:24.600Z,17.50
2018-04-27T14:50:27.799Z,17.60
2018-04-27T14:53:30.958Z,17.70
2018-04-27T14:56:34.897Z,17.60
2018-04-27T14:59:38.159Z,17.60
2018-04-27T15:02:41.762Z,17.70
2018-04-27T15:05:44.978Z,17.80
2018-04-27T15:08:48.992Z,17.80
2018-04-27T15:11:52.468Z,17.80
2018-04-27T15:14:55.680Z,18.00
2018-04-27T15:17:58.937Z,18.10
2018-04-27T15:21:02.158Z,17.90
2018-04-27T15:24:05.366Z,17.80
2018-04-27T15:27:08.525Z,17.70
2018-04-27T15:30:11.730Z,17.60
2018-04-27T15:33:14.896Z,17.70
2018-04-27T15:36:18.076Z,17.70
2018-04-27T15:39:21.260Z,17.60
2018-04-27T15:42:24.457Z,17.40
2018-04-27T15:45:27.612Z,17.30
2018-04-27T15:48:30.799Z,17.40
2018-04-27T15:51:34.424Z,17.30
2018-04-27T15:54:38.357Z,17.20
2018-04-27T15:57:41.654Z,17.20
2018-04-27T16:00:44.820Z,17.10
2018-04-27T16:03:48.830Z,17.20
2018-04-27T16:06:52.817Z,17.10
2018-04-27T16:09:55.998Z,17.10
2018-04-27T16:13:19.847Z,17.00
2018-04-27T16:18:05.859Z,17.00
2018-04-27T16:21:09.099Z,16.90
2018-04-27T16:24:12.385Z,16.90
2018-04-27T16:27:15.616Z,16.90
2018-04-27T16:30:19.636Z,16.80
2018-04-27T16:33:23.295Z,16.70
2018-04-27T16:36:27.514Z,16.70
2018-04-27T16:39:30.851Z,16.60
2018-04-27T16:42:44.008Z,16.60
2018-04-27T16:45:47.239Z,16.50
2018-04-27T16:48:50.478Z,16.40
2018-04-27T16:51:53.708Z,16.30
2018-04-27T16:54:56.930Z,16.40
2018-04-27T16:58:00.185Z,16.50
2018-04-27T17:01:03.402Z,16.60
2018-04-27T17:04:06.660Z,16.70
2018-04-27T17:07:10.253Z,16.70
2018-04-27T17:10:14.417Z,16.80
2018-04-27T17:13:18.373Z,16.70
2018-04-27T17:16:21.893Z,16.70
2018-04-27T17:19:25.172Z,16.80
2018-04-27T17:22:29.134Z,16.90
2018-04-27T17:25:32.397Z,16.90
2018-04-27T17:28:35.760Z,16.80
2018-04-27T17:31:38.961Z,16.70
2018-04-27T17:34:42.786Z,16.60
2018-04-27T17:37:46.139Z,16.70
2018-04-27T17:40:50.797Z,16.60
2018-04-27T17:43:54.052Z,16.50
2018-04-27T17:46:57.294Z,16.40
2018-04-27T17:50:00.583Z,16.30
2018-04-27T17:53:04.623Z,16.00
2018-04-27T17:56:08.236Z,16.00
2018-04-27T17:59:12.489Z,15.80
2018-04-27T18:02:26.117Z,15.80
2018-04-27T18:05:32.905Z,15.70
2018-04-27T18:08:36.391Z,15.60
2018-04-27T18:12:01.595Z,15.50
2018-04-27T18:15:05.976Z,15.30
2018-04-27T18:18:27.330Z,15.30
2018-04-27T18:21:30.920Z,15.20
2018-04-27T18:24:34.823Z,15.00
2018-04-27T18:27:38.691Z,14.80
2018-04-27T18:30:53.847Z,14.50
2018-04-27T18:34:01.163Z,14.20
2018-04-27T18:37:05.584Z,14.00
2018-04-27T18:40:09.099Z,14.00
2018-04-27T18:46:41.450Z,13.70
2018-04-27T18:49:45.389Z,13.30
2018-04-27T18:52:48.678Z,13.30
2018-04-27T18:55:52.525Z,13.10
2018-04-27T18:58:57.409Z,12.80
2018-04-27T19:02:00.633Z,12.80
2018-04-27T19:05:03.885Z,12.50
2018-04-27T19:08:07.968Z,12.20
2018-04-27T19:11:11.173Z,12.20
2018-04-27T19:14:15.597Z,12.00
2018-04-27T19:17:19.645Z,11.90
2018-04-27T19:20:24.046Z,11.80
2018-04-27T19:23:28.169Z,11.80
2018-04-27T19:26:31.380Z,11.70
2018-04-27T19:29:35.756Z,11.70
2018-04-27T19:32:39.761Z,11.70
2018-04-27T19:35:43.082Z,11.60
2018-04-27T19:38:46.276Z,11.70
2018-04-27T19:41:49.904Z,11.70
2018-04-27T19:44:55.719Z,11.60
2018-04-27T19:47:59.910Z,11.40
2018-04-27T19:51:03.137Z,11.40
2018-04-27T19:54:06.396Z,11.20
2018-04-27T19:57:09.908Z,11.10
2018-04-27T20:00:14.007Z,11.00
2018-04-27T20:03:17.260Z,10.90
2018-04-27T20:06:21.548Z,10.90
2018-04-27T20:09:25.970Z,10.80
2018-04-27T20:12:30.311Z,10.60
2018-04-27T20:15:37.542Z,10.60
2018-04-27T20:18:40.899Z,10.50
2018-04-27T20:21:44.362Z,10.40
2018-04-27T20:24:47.657Z,10.30
2018-04-27T20:27:52.376Z,10.30
2018-04-27T20:30:55.809Z,10.20
2018-04-27T20:33:59.092Z,10.20
2018-04-27T20:37:03.282Z,10.10
2018-04-27T20:40:06.477Z,10.10
2018-04-27T20:43:09.946Z,10.10
2018-04-27T20:46:13.156Z,10.20
2018-04-27T20:49:16.385Z,10.30
2018-04-27T20:52:19.925Z,10.20
2018-04-27T20:55:23.666Z,10.20
2018-04-27T20:58:27.165Z,10.20
2018-04-27T21:01:30.460Z,10.00
2018-04-27T21:04:33.811Z,9.90
2018-04-27T21:07:37.865Z,9.70
2018-04-27T21:10:41.154Z,9.70
2018-04-27T21:13:45.356Z,9.50
2018-04-27T21:16:48.555Z,9.50
2018-04-27T21:19:52.617Z,9.40
2018-04-27T21:22:55.965Z,9.30
2018-04-27T21:25:59.964Z,9.30
2018-04-27T21:29:03.132Z,9.20
2018-04-27T21:32:07.159Z,9.20
2018-04-27T21:35:11.061Z,9.20
2018-04-27T21:38:25.872Z,9.30
2018-04-27T21:45:19.072Z,8.90
2018-04-27T21:48:32.490Z,8.70
2018-04-27T21:51:41.513Z,8.70
2018-04-27T21:54:48.454Z,8.90
2018-04-27T21:57:55.712Z,8.90
2018-04-27T22:00:58.989Z,8.80
2018-04-27T22:04:05.441Z,8.70
2018-04-27T22:07:24.292Z,8.90
2018-04-27T22:10:28.066Z,8.80
2018-04-27T22:13:32.312Z,8.80
2018-04-27T22:16:37.375Z,8.60
2018-04-27T22:19:41.765Z,8.40
2018-04-27T22:22:45.791Z,8.10
2018-04-27T22:25:49.814Z,8.30
2018-04-27T22:29:04.665Z,8.30
2018-04-27T22:32:18.815Z,8.20
2018-04-27T22:35:29.975Z,8.20
2018-04-27T22:38:38.313Z,8.00
2018-04-27T22:41:41.608Z,8.00
2018-04-27T22:48:41.274Z,7.80
2018-04-27T22:51:44.589Z,8.00
2018-04-27T22:54:51.623Z,7.80
2018-04-27T22:57:55.890Z,7.90
2018-04-27T23:01:02.022Z,8.00
2018-04-27T23:04:06.533Z,7.90
2018-04-27T23:07:16.728Z,7.90
2018-04-27T23:10:22.238Z,7.70
2018-04-27T23:13:35.480Z,7.70
2018-04-27T23:16:48.663Z,7.90
2018-04-27T23:19:53.435Z,7.80
2018-04-27T23:23:12.619Z,7.70
2018-04-27T23:26:17.284Z,7.70
2018-04-27T23:29:20.532Z,7.60
2018-04-27T23:32:24.708Z,7.40
2018-04-27T23:35:28.384Z,7.40
2018-04-27T23:38:31.662Z,7.30
2018-04-27T23:41:37.299Z,7.60
2018-04-27T23:44:41.548Z,7.50
2018-04-27T23:47:44.970Z,7.40
2018-04-27T23:50:50.066Z,7.40
2018-04-27T23:53:53.434Z,7.40
2018-04-27T23:56:58.549Z,7.50
